createdAt,value
2018-09-22T00:00:59.056Z,37.04
2018-09-22T00:01:59.065Z,34.94
2018-09-22T00:02:59.074Z,31.12
2018-09-22T00:03:59.074Z,30.45
2018-09-22T00:04:59.093Z,31.98
2018-09-22T00:05:59.101Z,30.26
2018-09-22T00:06:59.129Z,32.36
2018-09-22T00:07:59.126Z,35.32
2018-09-22T00:08:59.093Z,35.80
2018-09-22T00:09:59.092Z,32.65
2018-09-22T00:10:59.093Z,32.45
2018-09-22T00:11:59.070Z,31.50
2018-09-22T00:12:59.064Z,31.88
2018-09-22T00:13:59.122Z,30.93
2018-09-22T00:14:59.107Z,34.46
2018-09-22T00:15:59.117Z,33.31
2018-09-22T00:16:59.132Z,31.88
2018-09-22T00:17:59.104Z,33.41
2018-09-22T00:18:59.090Z,35.21
2018-09-22T00:19:59.085Z,31.10
2018-09-22T00:20:59.096Z,30.16
2018-09-22T00:21:59.111Z,31.40
2018-09-22T00:22:59.090Z,32.34
2018-09-22T00:23:59.120Z,33.78
2018-09-22T00:24:59.102Z,31.20
2018-09-22T00:25:59.162Z,29.96
2018-09-22T00:26:59.117Z,30.34
2018-09-22T00:27:59.146Z,28.64
2018-09-22T00:28:59.121Z,28.24
2018-09-22T00:29:59.108Z,28.62
2018-09-22T00:30:59.136Z,32.73
2018-09-22T00:31:59.101Z,32.34
2018-09-22T00:32:59.112Z,31.20
2018-09-22T00:33:59.104Z,32.73
2018-09-22T00:34:59.150Z,31.79
2018-09-22T00:35:59.108Z,33.11
2018-09-22T00:36:59.137Z,34.25
2018-09-22T00:37:59.103Z,32.44
2018-09-22T00:38:59.106Z,30.82
2018-09-22T00:39:59.175Z,31.10
2018-09-22T00:40:59.119Z,29.86
2018-09-22T00:41:59.135Z,29.58
2018-09-22T00:42:59.125Z,35.21
2018-09-22T00:43:59.133Z,32.44
2018-09-22T00:44:59.119Z,33.39
2018-09-22T00:45:59.148Z,33.39
2018-09-22T00:46:59.133Z,33.97
2018-09-22T00:47:59.143Z,33.29
2018-09-22T00:48:59.126Z,31.29
2018-09-22T00:49:59.117Z,31.77
2018-09-22T00:50:59.168Z,33.11
2018-09-22T00:51:59.130Z,33.22
2018-09-22T00:52:59.134Z,35.21
2018-09-22T00:53:59.137Z,33.58
2018-09-22T00:54:59.123Z,33.60
2018-09-22T00:55:59.150Z,31.58
2018-09-22T00:56:59.147Z,32.44
2018-09-22T00:57:59.177Z,33.39
2018-09-22T00:58:59.148Z,26.54
2018-09-22T00:59:59.139Z,29.19
2018-09-22T01:00:59.154Z,30.82
2018-09-22T01:01:59.168Z,30.34
2018-09-22T01:02:59.367Z,29.48
2018-09-22T01:03:59.173Z,33.87
2018-09-22T01:04:59.168Z,30.82
2018-09-22T01:05:59.157Z,27.57
2018-09-22T01:06:59.257Z,28.62
2018-09-22T01:07:59.158Z,28.43
2018-09-22T01:08:59.177Z,28.53
2018-09-22T01:09:59.156Z,26.90
2018-09-22T01:10:59.152Z,26.90
2018-09-22T01:11:59.165Z,26.72
2018-09-22T01:12:59.178Z,26.33
2018-09-22T01:13:59.175Z,26.43
2018-09-22T01:14:59.180Z,25.85
2018-09-22T01:15:59.230Z,30.15
2018-09-22T01:16:59.188Z,29.19
2018-09-22T01:17:59.168Z,28.81
2018-09-22T01:18:59.193Z,27.67
2018-09-22T01:19:59.188Z,27.19
2018-09-22T01:20:59.185Z,28.33
2018-09-22T01:21:59.231Z,27.38
2018-09-22T01:22:59.267Z,27.67
2018-09-22T01:23:59.187Z,26.43
2018-09-22T01:24:59.209Z,27.19
2018-09-22T01:25:59.190Z,26.72
2018-09-22T01:26:59.205Z,24.62
2018-09-22T01:27:59.216Z,25.38
2018-09-22T01:28:59.238Z,25.38
2018-09-22T01:29:59.213Z,25.67
2018-09-22T01:30:59.201Z,24.43
2018-09-22T01:31:59.297Z,25.19
2018-09-22T01:32:59.213Z,25.47
2018-09-22T01:33:59.240Z,24.32
2018-09-22T01:34:59.200Z,23.47
2018-09-22T01:35:59.207Z,23.57
2018-09-22T01:36:59.246Z,24.43
2018-09-22T01:37:59.214Z,24.04
2018-09-22T01:38:59.227Z,24.13
2018-09-22T01:39:59.237Z,24.32
2018-09-22T01:40:59.222Z,23.08
2018-09-22T01:41:59.199Z,22.69
2018-09-22T01:42:59.257Z,22.99
2018-09-22T01:43:59.256Z,22.89
2018-09-22T01:44:59.252Z,22.22
2018-09-22T01:45:59.210Z,22.50
2018-09-22T01:46:59.347Z,23.36
2018-09-22T01:47:59.210Z,22.31
2018-09-22T01:48:59.207Z,20.88
2018-09-22T01:49:59.231Z,19.74
2018-09-22T01:50:59.208Z,19.64
2018-09-22T01:51:59.289Z,20.31
2018-09-22T01:52:59.233Z,20.03
2018-09-22T01:53:59.234Z,19.45
2018-09-22T01:54:59.234Z,20.60
2018-09-22T01:55:59.218Z,21.26
2018-09-22T01:56:59.213Z,20.88
2018-09-22T01:57:59.211Z,21.55
2018-09-22T01:58:59.233Z,20.40
2018-09-22T01:59:59.212Z,19.46
2018-09-22T02:00:59.245Z,19.35
2018-09-22T02:01:59.242Z,17.93
2018-09-22T02:02:59.224Z,18.31
2018-09-22T02:03:59.229Z,17.64
2018-09-22T02:04:59.223Z,17.55
2018-09-22T02:05:59.320Z,17.83
2018-09-22T02:06:59.244Z,18.79
2018-09-22T02:07:59.256Z,18.40
2018-09-22T02:08:59.319Z,19.26
2018-09-22T02:09:59.273Z,20.60
2018-09-22T02:10:59.281Z,20.31
2018-09-22T02:11:59.359Z,21.17
2018-09-22T02:12:59.321Z,20.98
2018-09-22T02:13:59.237Z,21.08
2018-09-22T02:14:59.259Z,21.26
2018-09-22T02:15:59.255Z,22.13
2018-09-22T02:16:59.331Z,20.60
2018-09-22T02:17:59.310Z,21.26
2018-09-22T02:18:59.301Z,22.79
2018-09-22T02:19:59.308Z,21.08
2018-09-22T02:20:59.347Z,22.31
2018-09-22T02:21:59.322Z,22.41
2018-09-22T02:22:59.257Z,24.03
2018-09-22T02:23:59.246Z,23.17
2018-09-22T02:24:59.261Z,22.79
2018-09-22T02:25:59.291Z,22.98
2018-09-22T02:26:59.311Z,22.89
2018-09-22T02:27:59.275Z,22.50
2018-09-22T02:28:59.286Z,22.41
2018-09-22T02:29:59.398Z,20.79
2018-09-22T02:30:59.290Z,20.88
2018-09-22T02:31:59.318Z,20.40
2018-09-22T02:32:59.299Z,21.36
2018-09-22T02:33:59.264Z,20.40
2018-09-22T02:34:59.276Z,20.40
2018-09-22T02:35:59.327Z,19.93
2018-09-22T02:36:59.392Z,19.64
2018-09-22T02:37:59.293Z,20.12
2018-09-22T02:38:59.287Z,19.35
2018-09-22T02:39:59.293Z,17.93
2018-09-22T02:40:59.268Z,16.78
2018-09-22T02:41:59.302Z,16.59
2018-09-22T02:42:59.290Z,16.59
2018-09-22T02:43:59.296Z,15.26
2018-09-22T02:44:59.328Z,15.16
2018-09-22T02:45:59.299Z,16.50
2018-09-22T02:46:59.308Z,15.92
2018-09-22T02:47:59.291Z,14.87
2018-09-22T02:48:59.331Z,15.54
2018-09-22T02:49:59.416Z,14.78
2018-09-22T02:50:59.306Z,13.45
2018-09-22T02:51:59.281Z,12.21
2018-09-22T02:52:59.328Z,12.97
2018-09-22T02:53:59.331Z,13.92
2018-09-22T02:54:59.299Z,14.30
2018-09-22T02:55:59.306Z,13.45
2018-09-22T02:56:59.312Z,13.54
2018-09-22T02:57:59.340Z,14.01
2018-09-22T02:58:59.317Z,13.54
2018-09-22T02:59:59.314Z,13.06
2018-09-22T03:00:59.378Z,13.54
2018-09-22T03:01:59.314Z,13.45
2018-09-22T03:02:59.407Z,14.78
2018-09-22T03:03:59.342Z,14.97
2018-09-22T03:04:59.317Z,14.11
2018-09-22T03:05:59.329Z,13.54
2018-09-22T03:06:59.360Z,12.21
2018-09-22T03:07:59.317Z,11.54
2018-09-22T03:08:59.321Z,11.44
2018-09-22T03:09:59.325Z,11.54
2018-09-22T03:10:59.315Z,11.35
2018-09-22T03:11:59.388Z,11.44
2018-09-22T03:12:59.331Z,11.16
2018-09-22T03:13:59.307Z,12.21
2018-09-22T03:14:59.309Z,11.92
2018-09-22T03:15:59.360Z,11.25
2018-09-22T03:16:59.403Z,11.72
2018-09-22T03:17:59.322Z,11.54
2018-09-22T03:18:59.361Z,11.25
2018-09-22T03:19:59.317Z,9.25
2018-09-22T03:20:59.322Z,9.16
2018-09-22T03:21:59.328Z,8.96
2018-09-22T03:22:59.352Z,9.72
2018-09-22T03:23:59.346Z,9.16
2018-09-22T03:24:59.343Z,8.96
2018-09-22T03:25:59.334Z,9.06
2018-09-22T03:26:59.379Z,9.63
2018-09-22T03:27:59.394Z,8.87
2018-09-22T03:28:59.339Z,8.39
2018-09-22T03:29:59.352Z,8.39
2018-09-22T03:30:59.368Z,8.29
2018-09-22T03:31:59.346Z,8.58
2018-09-22T03:32:59.372Z,7.53
2018-09-22T03:33:59.338Z,8.39
2018-09-22T03:34:59.434Z,9.06
2018-09-22T03:35:59.380Z,9.25
2018-09-22T03:36:59.342Z,9.72
2018-09-22T03:37:59.365Z,9.44
2018-09-22T03:38:59.357Z,9.34
2018-09-22T03:39:59.370Z,9.82
2018-09-22T03:40:59.362Z,9.25
2018-09-22T03:41:59.373Z,9.16
2018-09-22T03:42:59.349Z,9.25
2018-09-22T03:43:59.381Z,9.06
2018-09-22T03:44:59.344Z,9.25
2018-09-22T03:45:59.360Z,9.34
2018-09-22T03:46:59.352Z,10.01
2018-09-22T03:47:59.370Z,9.92
2018-09-22T03:48:59.371Z,10.01
2018-09-22T03:49:59.352Z,10.11
2018-09-22T03:50:59.371Z,9.72
2018-09-22T03:51:59.442Z,10.39
2018-09-22T03:52:59.347Z,11.44
2018-09-22T03:53:59.355Z,11.44
2018-09-22T03:54:59.374Z,11.44
2018-09-22T03:55:59.369Z,12.01
2018-09-22T03:56:59.375Z,12.01
2018-09-22T03:57:59.359Z,12.21
2018-09-22T03:58:59.358Z,12.11
2018-09-22T03:59:59.377Z,11.63
2018-09-22T04:00:59.399Z,12.30
2018-09-22T04:01:59.372Z,12.40
2018-09-22T04:02:59.372Z,12.01
2018-09-22T04:03:59.386Z,12.59
2018-09-22T04:04:59.427Z,12.97
2018-09-22T04:05:59.432Z,13.64
2018-09-22T04:06:59.368Z,14.01
2018-09-22T04:07:59.370Z,13.73
2018-09-22T04:08:59.382Z,13.92
2018-09-22T04:09:59.382Z,14.01
2018-09-22T04:10:59.395Z,12.49
2018-09-22T04:11:59.384Z,11.54
2018-09-22T04:12:59.378Z,10.49
2018-09-22T04:13:59.389Z,10.68
2018-09-22T04:14:59.410Z,10.49
2018-09-22T04:15:59.408Z,10.96
2018-09-22T04:16:59.413Z,10.68
2018-09-22T04:17:59.416Z,10.68
2018-09-22T04:18:59.394Z,10.68
2018-09-22T04:19:59.402Z,11.35
2018-09-22T04:20:59.384Z,11.25
2018-09-22T04:21:59.400Z,10.96
2018-09-22T04:22:59.432Z,10.96
2018-09-22T04:23:59.393Z,11.63
2018-09-22T04:24:59.391Z,11.82
2018-09-22T04:25:59.426Z,12.49
2018-09-22T04:26:59.406Z,12.59
2018-09-22T04:27:59.433Z,12.68
2018-09-22T04:28:59.448Z,11.82
2018-09-22T04:29:59.387Z,11.72
2018-09-22T04:30:59.412Z,12.01
2018-09-22T04:31:59.410Z,12.59
2018-09-22T04:32:59.430Z,13.73
2018-09-22T04:33:59.417Z,14.50
2018-09-22T04:34:59.413Z,14.21
2018-09-22T04:35:59.418Z,14.11
2018-09-22T04:36:59.423Z,15.45
2018-09-22T04:37:59.438Z,16.11
2018-09-22T04:38:59.413Z,15.06
2018-09-22T04:39:59.515Z,15.26
2018-09-22T04:40:59.415Z,16.50
2018-09-22T04:41:59.409Z,16.02
2018-09-22T04:42:59.428Z,15.45
2018-09-22T04:43:59.425Z,16.69
2018-09-22T04:44:59.426Z,16.59
2018-09-22T04:45:59.424Z,16.02
2018-09-22T04:46:59.434Z,16.59
2018-09-22T04:47:59.437Z,17.45
2018-09-22T04:48:59.440Z,17.45
2018-09-22T04:49:59.463Z,18.59
2018-09-22T04:51:00.302Z,19.45
2018-09-22T04:51:59.427Z,19.07
2018-09-22T04:52:59.435Z,19.17
2018-09-22T04:53:59.424Z,19.35
2018-09-22T04:54:59.436Z,18.79
2018-09-22T04:55:59.414Z,18.69
2018-09-22T04:56:59.441Z,20.88
2018-09-22T04:57:59.478Z,20.98
2018-09-22T04:58:59.426Z,20.12
2018-09-22T04:59:59.449Z,21.26
2018-09-22T05:00:59.449Z,22.22
2018-09-22T05:01:59.427Z,22.03
2018-09-22T05:02:59.495Z,21.45
2018-09-22T05:03:59.443Z,21.26
2018-09-22T05:04:59.439Z,21.36
2018-09-22T05:05:59.465Z,21.84
2018-09-22T05:06:59.447Z,21.64
2018-09-22T05:07:59.460Z,22.69
2018-09-22T05:08:59.446Z,22.03
2018-09-22T05:09:59.444Z,23.65
2018-09-22T05:10:59.480Z,24.51
2018-09-22T05:11:59.443Z,24.62
2018-09-22T05:12:59.451Z,24.32
2018-09-22T05:13:59.437Z,24.79
2018-09-22T05:14:59.454Z,24.14
2018-09-22T05:15:59.471Z,24.23
2018-09-22T05:16:59.448Z,25.19
2018-09-22T05:17:59.466Z,25.28
2018-09-22T05:18:59.479Z,25.57
2018-09-22T05:19:59.467Z,27.57
2018-09-22T05:20:59.458Z,28.14
2018-09-22T05:21:59.472Z,29.00
2018-09-22T05:22:59.475Z,28.43
2018-09-22T05:23:59.460Z,28.33
2018-09-22T05:24:59.495Z,32.06
2018-09-22T05:25:59.472Z,30.72
2018-09-22T05:26:59.478Z,30.63
2018-09-22T05:27:59.507Z,30.63
2018-09-22T05:28:59.491Z,31.10
2018-09-22T05:29:59.494Z,31.77
2018-09-22T05:30:59.471Z,32.34
2018-09-22T05:31:59.472Z,35.68
2018-09-22T05:32:59.480Z,35.68
2018-09-22T05:33:59.479Z,36.92
2018-09-22T05:34:59.503Z,36.73
2018-09-22T05:35:59.494Z,37.68
2018-09-22T05:36:59.467Z,37.68
2018-09-22T05:37:59.562Z,37.88
2018-09-22T05:38:59.507Z,38.17
2018-09-22T05:39:59.496Z,38.83
2018-09-22T05:40:59.488Z,39.59
2018-09-22T05:41:59.507Z,38.64
2018-09-22T05:42:59.494Z,38.35
2018-09-22T05:43:59.481Z,39.22
2018-09-22T05:44:59.517Z,40.55
2018-09-22T05:45:59.483Z,41.88
2018-09-22T05:46:59.528Z,39.78
2018-09-22T05:47:59.488Z,37.68
2018-09-22T05:48:59.518Z,39.40
2018-09-22T05:49:59.510Z,39.78
2018-09-22T05:50:59.516Z,39.31
2018-09-22T05:51:59.503Z,38.26
2018-09-22T05:52:59.504Z,38.17
2018-09-22T05:53:59.517Z,38.35
2018-09-22T05:54:59.494Z,38.07
2018-09-22T05:55:59.519Z,39.31
2018-09-22T05:56:59.562Z,38.83
2018-09-22T05:57:59.556Z,39.88
2018-09-22T05:58:59.549Z,40.26
2018-09-22T05:59:59.497Z,39.88
2018-09-22T06:00:59.534Z,39.69
2018-09-22T06:01:59.528Z,41.79
2018-09-22T06:02:59.514Z,43.03
2018-09-22T06:03:59.684Z,42.55
2018-09-22T06:04:59.527Z,42.36
2018-09-22T06:05:59.501Z,45.13
2018-09-22T06:06:59.514Z,43.79
2018-09-22T06:07:59.519Z,45.03
2018-09-22T06:08:59.530Z,48.18
2018-09-22T06:09:59.533Z,49.42
2018-09-22T06:10:59.529Z,46.77
2018-09-22T06:11:59.515Z,47.73
2018-09-22T06:12:59.551Z,47.73
2018-09-22T06:13:59.546Z,45.63
2018-09-22T06:14:59.526Z,46.87
2018-09-22T06:15:59.545Z,50.12
2018-09-22T06:16:59.525Z,49.44
2018-09-22T06:17:59.550Z,50.40
2018-09-22T06:18:59.547Z,52.12
2018-09-22T06:19:59.528Z,50.49
2018-09-22T06:20:59.536Z,50.59
2018-09-22T06:21:59.574Z,50.12
2018-09-22T06:22:59.545Z,52.40
2018-09-22T06:23:59.549Z,51.74
2018-09-22T06:24:59.548Z,51.93
2018-09-22T06:25:59.584Z,53.08
2018-09-22T06:26:59.537Z,53.27
2018-09-22T06:27:59.562Z,55.08
2018-09-22T06:28:59.696Z,57.85
2018-09-22T06:29:59.583Z,59.41
2018-09-22T06:30:59.611Z,59.98
2018-09-22T06:31:59.553Z,62.75
2018-09-22T06:32:59.595Z,64.09
2018-09-22T06:33:59.563Z,64.65
2018-09-22T06:34:59.548Z,66.38
2018-09-22T06:35:59.540Z,67.43
2018-09-22T06:36:59.548Z,67.81
2018-09-22T06:37:59.562Z,71.28
2018-09-22T06:38:59.565Z,68.61
2018-09-22T06:39:59.560Z,71.15
2018-09-22T06:40:59.561Z,71.25
2018-09-22T06:41:59.591Z,70.29
2018-09-22T06:42:59.587Z,68.41
2018-09-22T06:43:59.611Z,67.62
2018-09-22T06:44:59.593Z,69.18
2018-09-22T06:45:59.583Z,71.19
2018-09-22T06:46:59.564Z,69.91
2018-09-22T06:47:59.584Z,69.27
2018-09-22T06:48:59.592Z,72.39
2018-09-22T06:49:59.615Z,65.80
2018-09-22T06:50:59.575Z,73.44
2018-09-22T06:51:59.584Z,68.19
2018-09-22T06:52:59.628Z,68.19
2018-09-22T06:53:59.575Z,70.20
2018-09-22T06:54:59.663Z,70.29
2018-09-22T06:55:59.570Z,70.01
2018-09-22T06:56:59.595Z,69.24
2018-09-22T06:57:59.588Z,67.91
2018-09-22T06:58:59.589Z,72.72
2018-09-22T06:59:59.595Z,71.47
2018-09-22T07:00:59.596Z,72.72
2018-09-22T07:01:59.626Z,74.24
2018-09-22T07:02:59.604Z,72.62
2018-09-22T07:03:59.636Z,75.49
2018-09-22T07:04:59.660Z,77.30
2018-09-22T07:05:59.614Z,75.78
2018-09-22T07:06:59.625Z,77.06
2018-09-22T07:07:59.612Z,80.02
2018-09-22T07:08:59.631Z,81.45
2018-09-22T07:09:59.634Z,85.03
2018-09-22T07:10:59.629Z,88.38
2018-09-22T07:11:59.611Z,89.34
2018-09-22T07:12:59.639Z,92.73
2018-09-22T07:13:59.619Z,94.65
2018-09-22T07:14:59.634Z,93.02
2018-09-22T07:15:59.623Z,98.47
2018-09-22T07:16:59.626Z,97.90
2018-09-22T07:17:59.621Z,94.55
2018-09-22T07:18:59.635Z,93.98
2018-09-22T07:19:59.631Z,96.56
2018-09-22T07:20:59.637Z,99.72
2018-09-22T07:21:59.650Z,97.66
2018-09-22T07:22:59.642Z,99.99
2018-09-22T07:23:59.657Z,99.99
2018-09-22T07:24:59.719Z,99.99
2018-09-22T07:25:59.646Z,99.99
2018-09-22T07:26:59.668Z,99.99
2018-09-22T07:27:59.678Z,99.99
2018-09-22T07:28:59.661Z,99.99
2018-09-22T07:29:59.684Z,99.99
2018-09-22T07:30:59.731Z,99.99
2018-09-22T07:31:59.684Z,99.99
2018-09-22T07:32:59.663Z,99.99
2018-09-22T07:33:59.666Z,99.99
2018-09-22T07:34:59.665Z,99.99
2018-09-22T07:35:59.665Z,99.99
2018-09-22T07:36:59.688Z,99.99
2018-09-22T07:37:59.661Z,99.99
2018-09-22T07:38:59.688Z,98.81
2018-09-22T07:39:59.675Z,99.48
2018-09-22T07:40:59.670Z,99.48
2018-09-22T07:41:59.680Z,98.81
2018-09-22T07:42:59.674Z,98.81
2018-09-22T07:43:59.740Z,99.99
2018-09-22T07:44:59.687Z,99.99
2018-09-22T07:45:59.708Z,99.99
2018-09-22T07:46:59.707Z,99.99
2018-09-22T07:47:59.707Z,99.99
2018-09-22T07:48:59.711Z,99.99
2018-09-22T07:49:59.716Z,99.99
2018-09-22T07:50:59.714Z,99.99
2018-09-22T07:51:59.717Z,99.99
2018-09-22T07:52:59.728Z,99.99
2018-09-22T07:53:59.701Z,99.99
2018-09-22T07:54:59.714Z,99.99
2018-09-22T07:55:59.692Z,99.99
2018-09-22T07:56:59.761Z,99.99
2018-09-22T07:57:59.710Z,99.99
2018-09-22T07:58:59.714Z,99.99
2018-09-22T07:59:59.708Z,99.99
2018-09-22T08:00:59.716Z,99.99
2018-09-22T08:01:59.748Z,99.99
2018-09-22T08:02:59.742Z,99.99
2018-09-22T08:03:59.738Z,99.99
2018-09-22T08:04:59.801Z,99.99
2018-09-22T08:05:59.724Z,99.99
2018-09-22T08:06:59.748Z,99.99
2018-09-22T08:07:59.741Z,99.99
2018-09-22T08:08:59.744Z,99.99
2018-09-22T08:09:59.791Z,99.99
2018-09-22T08:10:59.898Z,99.99
2018-09-22T08:11:59.733Z,99.99
2018-09-22T08:12:59.826Z,99.99
2018-09-22T08:13:59.784Z,99.99
2018-09-22T08:14:59.763Z,99.99
2018-09-22T08:15:59.788Z,99.99
2018-09-22T08:16:59.767Z,99.99
2018-09-22T08:17:59.765Z,99.99
2018-09-22T08:18:59.837Z,99.99
2018-09-22T08:19:59.776Z,99.99
2018-09-22T08:20:59.805Z,99.99
2018-09-22T08:21:59.767Z,99.99
2018-09-22T08:22:59.796Z,99.99
2018-09-22T08:23:59.779Z,99.99
2018-09-22T08:24:59.824Z,99.99
2018-09-22T08:25:59.795Z,99.99
2018-09-22T08:26:59.809Z,99.99
2018-09-22T08:27:59.805Z,99.99
2018-09-22T08:28:59.832Z,99.99
2018-09-22T08:29:59.825Z,99.99
2018-09-22T08:30:59.813Z,99.99
2018-09-22T08:31:59.875Z,99.99
2018-09-22T08:32:59.834Z,99.99
2018-09-22T08:33:59.834Z,99.30
2018-09-22T08:34:59.816Z,96.56
2018-09-22T08:35:59.924Z,95.12
2018-09-22T08:37:00.015Z,95.40
2018-09-22T08:37:59.851Z,94.87
2018-09-22T08:38:59.840Z,93.81
2018-09-22T08:39:59.843Z,92.90
2018-09-22T08:40:59.856Z,94.39
2018-09-22T08:41:59.885Z,88.69
2018-09-22T08:42:59.857Z,85.45
2018-09-22T08:43:59.989Z,85.11
2018-09-22T08:44:59.953Z,84.39
2018-09-22T08:45:59.854Z,85.11
2018-09-22T08:46:59.869Z,84.16
2018-09-22T08:47:59.883Z,84.07
2018-09-22T08:48:59.938Z,85.27
2018-09-22T08:49:59.967Z,84.74
2018-09-22T08:51:00.001Z,84.88
2018-09-22T08:51:59.933Z,81.92
2018-09-22T08:52:59.898Z,82.81
2018-09-22T08:53:59.898Z,84.69
2018-09-22T08:54:59.962Z,86.78
2018-09-22T08:55:59.915Z,89.48
2018-09-22T08:56:59.934Z,89.33
2018-09-22T08:57:59.988Z,86.52
2018-09-22T08:58:59.943Z,84.98
2018-09-22T08:59:59.953Z,84.94
2018-09-22T09:00:59.955Z,85.47
2018-09-22T09:01:59.954Z,88.81
2018-09-22T09:02:59.985Z,90.69
2018-09-22T09:03:59.990Z,92.27
2018-09-22T09:05:00.024Z,90.73
2018-09-22T09:05:59.980Z,92.66
2018-09-22T09:07:00.015Z,95.40
2018-09-22T09:08:00.011Z,98.05
2018-09-22T09:09:00.003Z,99.83
2018-09-22T09:10:00.035Z,99.99
2018-09-22T09:11:00.112Z,99.99
2018-09-22T09:12:00.051Z,99.99
2018-09-22T09:13:00.028Z,99.99
2018-09-22T09:14:00.063Z,99.99
2018-09-22T09:15:00.028Z,99.99
2018-09-22T09:16:00.072Z,99.99
2018-09-22T09:17:00.115Z,99.99
2018-09-22T09:18:00.077Z,99.99
2018-09-22T09:19:00.118Z,99.99
2018-09-22T09:20:00.058Z,99.99
2018-09-22T09:21:00.083Z,99.99
2018-09-22T09:22:00.172Z,99.99
2018-09-22T09:23:00.099Z,99.99
2018-09-22T09:24:00.120Z,99.99
2018-09-22T09:25:00.105Z,99.99
2018-09-22T09:26:00.111Z,99.99
2018-09-22T09:27:00.149Z,99.99
2018-09-22T09:28:00.138Z,99.99
2018-09-22T09:29:00.136Z,99.99
2018-09-22T09:30:00.132Z,99.99
2018-09-22T09:31:00.167Z,99.99
2018-09-22T09:32:00.191Z,99.99
2018-09-22T09:33:00.163Z,99.99
2018-09-22T09:34:00.154Z,99.99
2018-09-22T09:35:00.134Z,99.99
2018-09-22T09:36:00.175Z,99.99
2018-09-22T09:37:00.170Z,99.99
2018-09-22T09:38:00.195Z,99.99
2018-09-22T09:39:00.181Z,99.99
2018-09-22T09:40:00.175Z,99.99
2018-09-22T09:41:00.213Z,99.99
2018-09-22T09:42:00.208Z,99.99
2018-09-22T09:43:00.157Z,99.99
2018-09-22T09:44:00.191Z,99.99
2018-09-22T09:45:00.176Z,99.99
2018-09-22T09:46:00.204Z,99.99
2018-09-22T09:47:00.187Z,99.99
2018-09-22T09:48:00.193Z,99.99
2018-09-22T09:49:00.197Z,99.99
2018-09-22T09:50:00.206Z,99.99
2018-09-22T09:51:00.211Z,99.99
2018-09-22T09:52:00.198Z,99.99
2018-09-22T09:53:00.213Z,99.99
2018-09-22T09:54:00.225Z,99.99
2018-09-22T09:55:00.336Z,99.99
2018-09-22T09:56:00.247Z,99.99
2018-09-22T09:57:00.244Z,99.99
2018-09-22T09:58:00.240Z,99.99
2018-09-22T09:59:00.216Z,99.99
2018-09-22T10:00:00.234Z,99.99
2018-09-22T10:01:00.267Z,99.99
2018-09-22T10:02:00.238Z,99.99
2018-09-22T10:03:00.284Z,99.99
2018-09-22T10:04:00.246Z,99.99
2018-09-22T10:05:00.245Z,99.99
2018-09-22T10:06:00.271Z,99.99
2018-09-22T10:07:00.279Z,99.99
2018-09-22T10:08:00.248Z,99.99
2018-09-22T10:09:00.304Z,99.99
2018-09-22T10:10:00.289Z,99.99
2018-09-22T10:11:00.261Z,99.99
2018-09-22T10:12:00.270Z,99.99
2018-09-22T10:13:00.278Z,99.99
2018-09-22T10:14:00.258Z,99.99
2018-09-22T10:15:00.265Z,99.99
2018-09-22T10:16:00.267Z,99.54
2018-09-22T10:17:00.309Z,99.93
2018-09-22T10:18:00.303Z,98.72
2018-09-22T10:19:00.329Z,97.09
2018-09-22T10:20:00.348Z,96.99
2018-09-22T10:21:00.485Z,96.37
2018-09-22T10:22:00.304Z,95.55
2018-09-22T10:23:00.307Z,95.69
2018-09-22T10:24:00.339Z,96.32
2018-09-22T10:25:00.357Z,97.19
2018-09-22T10:26:00.327Z,96.89
2018-09-22T10:27:00.387Z,97.19
2018-09-22T10:28:00.395Z,96.27
2018-09-22T10:29:00.383Z,94.97
2018-09-22T10:30:00.337Z,93.29
2018-09-22T10:31:00.336Z,90.92
2018-09-22T10:32:00.344Z,90.54
2018-09-22T10:33:00.394Z,90.06
2018-09-22T10:34:00.329Z,89.00
2018-09-22T10:35:00.369Z,89.04
2018-09-22T10:36:00.365Z,89.39
2018-09-22T10:37:00.395Z,90.93
2018-09-22T10:38:00.395Z,93.00
2018-09-22T10:39:00.360Z,96.27
2018-09-22T10:40:00.364Z,94.97
2018-09-22T10:41:00.382Z,95.31
2018-09-22T10:42:00.391Z,94.49
2018-09-22T10:43:00.388Z,95.94
2018-09-22T10:44:00.391Z,95.55
2018-09-22T10:45:00.408Z,94.45
2018-09-22T10:46:00.414Z,96.27
2018-09-22T10:47:00.401Z,97.42
2018-09-22T10:48:00.404Z,98.00
2018-09-22T10:49:00.428Z,96.13
2018-09-22T10:50:00.448Z,96.22
2018-09-22T10:51:00.416Z,96.27
2018-09-22T10:52:00.419Z,95.98
2018-09-22T10:53:00.552Z,96.56
2018-09-22T10:54:00.467Z,96.85
2018-09-22T10:55:00.445Z,96.80
2018-09-22T10:56:00.438Z,95.21
2018-09-22T10:57:00.461Z,95.26
2018-09-22T10:58:00.458Z,95.07
2018-09-22T10:59:00.506Z,93.29
2018-09-22T11:00:00.456Z,90.98
2018-09-22T11:01:00.496Z,90.69
2018-09-22T11:02:00.481Z,91.22
2018-09-22T11:03:00.507Z,91.22
2018-09-22T11:04:00.492Z,88.43
2018-09-22T11:05:00.505Z,87.52
2018-09-22T11:06:00.564Z,88.19
2018-09-22T11:07:00.495Z,88.19
2018-09-22T11:08:00.501Z,88.24
2018-09-22T11:09:00.524Z,89.50
2018-09-22T11:10:00.512Z,90.45
2018-09-22T11:11:00.498Z,88.77
2018-09-22T11:12:00.508Z,88.29
2018-09-22T11:13:00.534Z,88.24
2018-09-22T11:14:00.516Z,88.53
2018-09-22T11:15:00.550Z,87.95
2018-09-22T11:16:00.545Z,85.93
2018-09-22T11:17:00.529Z,85.16
2018-09-22T11:18:00.539Z,84.54
2018-09-22T11:19:00.546Z,85.02
2018-09-22T11:20:00.522Z,86.65
2018-09-22T11:21:00.529Z,87.33
2018-09-22T11:22:00.542Z,88.48
2018-09-22T11:23:00.548Z,89.21
2018-09-22T11:24:00.550Z,89.30
2018-09-22T11:25:00.581Z,90.31
2018-09-22T11:26:00.567Z,88.30
2018-09-22T11:27:00.621Z,88.97
2018-09-22T11:28:00.572Z,89.54
2018-09-22T11:29:00.673Z,88.44
2018-09-22T11:30:00.581Z,88.24
2018-09-22T11:31:00.575Z,88.63
2018-09-22T11:32:00.652Z,87.62
2018-09-22T11:33:00.589Z,87.05
2018-09-22T11:34:00.597Z,86.62
2018-09-22T11:35:00.610Z,87.43
2018-09-22T11:36:00.582Z,87.43
2018-09-22T11:37:00.628Z,86.95
2018-09-22T11:38:00.621Z,87.34
2018-09-22T11:39:00.639Z,88.78
2018-09-22T11:48:15.059Z,85.84
2018-09-22T11:50:37.581Z,86.52
2018-09-22T11:52:15.073Z,85.60
2018-09-22T11:53:12.051Z,83.86
2018-09-22T11:54:12.564Z,82.42
2018-09-22T11:55:12.141Z,83.77
2018-09-22T11:56:10.149Z,82.61
2018-09-22T11:57:10.085Z,80.88
2018-09-22T11:58:10.100Z,80.40
2018-09-22T11:59:10.156Z,81.75
2018-09-22T12:00:10.084Z,82.52
2018-09-22T12:01:10.054Z,82.19
2018-09-22T12:02:10.142Z,81.23
2018-09-22T12:03:10.154Z,82.76
2018-09-22T12:04:10.102Z,83.53
2018-09-22T12:05:11.556Z,83.48
2018-09-22T12:06:10.128Z,82.57
2018-09-22T12:07:10.135Z,82.81
2018-09-22T12:08:10.193Z,83.15
2018-09-22T12:09:10.146Z,81.99
2018-09-22T12:10:10.204Z,83.53
2018-09-22T12:11:10.094Z,82.43
2018-09-22T12:12:10.088Z,83.83
2018-09-22T12:13:10.080Z,83.63
2018-09-22T12:14:10.171Z,83.86
2018-09-22T12:15:10.069Z,82.57
2018-09-22T12:16:09.410Z,83.00
2018-09-22T12:17:09.424Z,83.34
2018-09-22T12:18:09.443Z,84.78
2018-09-22T12:19:09.419Z,84.21
2018-09-22T12:20:09.429Z,84.25
2018-09-22T12:21:09.441Z,82.81
2018-09-22T12:22:09.435Z,83.34
2018-09-22T12:23:09.440Z,83.58
2018-09-22T12:24:09.445Z,82.96
2018-09-22T12:25:09.462Z,83.63
2018-09-22T12:26:09.437Z,83.19
2018-09-22T12:27:09.440Z,81.42
2018-09-22T12:28:09.435Z,81.61
2018-09-22T12:29:09.436Z,82.86
2018-09-22T12:30:09.450Z,83.34
2018-09-22T12:31:09.441Z,83.49
2018-09-22T12:32:09.446Z,83.20
2018-09-22T12:33:09.465Z,84.07
2018-09-22T12:34:09.509Z,84.51
2018-09-22T12:35:09.468Z,85.08
2018-09-22T12:36:09.483Z,86.33
2018-09-22T12:37:09.484Z,86.81
2018-09-22T12:38:09.481Z,86.91
2018-09-22T12:39:09.506Z,86.81
2018-09-22T12:40:09.536Z,87.87
2018-09-22T12:41:09.521Z,87.77
2018-09-22T12:42:09.503Z,87.10
2018-09-22T12:43:09.498Z,87.19
2018-09-22T12:44:09.521Z,86.14
2018-09-22T12:45:09.556Z,85.57
2018-09-22T12:46:09.573Z,85.75
2018-09-22T12:47:09.510Z,85.14
2018-09-22T12:48:09.514Z,85.42
2018-09-22T12:49:09.507Z,85.91
2018-09-22T12:50:09.502Z,87.25
2018-09-22T12:51:09.519Z,87.15
2018-09-22T12:52:09.500Z,87.44
2018-09-22T12:53:09.506Z,87.35
2018-09-22T12:54:09.557Z,87.49
2018-09-22T12:55:09.558Z,87.01
2018-09-22T12:56:09.539Z,86.81
2018-09-22T12:57:09.551Z,87.01
2018-09-22T12:58:09.545Z,86.24
2018-09-22T12:59:09.531Z,86.05
2018-09-22T13:00:09.558Z,85.99
2018-09-22T13:01:09.511Z,85.71
2018-09-22T13:02:09.531Z,85.95
2018-09-22T13:03:09.560Z,86.57
2018-09-22T13:04:09.537Z,86.09